createdAt,value
2022-08-05T00:01:28.427Z,99636.83
2022-08-05T00:06:33.538Z,99637.85
2022-08-05T00:11:48.240Z,99640.09
2022-08-05T00:16:54.030Z,99633.50
2022-08-05T00:21:57.616Z,99624.70
2022-08-05T00:27:01.004Z,99635.44
2022-08-05T00:32:15.010Z,99633.61
2022-08-05T00:37:21.860Z,99626.59
2022-08-05T00:42:37.096Z,99627.94
2022-08-05T00:47:57.188Z,99625.52
2022-08-05T00:53:09.877Z,99624.11
2022-08-05T00:58:27.728Z,99623.50
2022-08-05T01:03:33.492Z,99621.13
2022-08-05T01:08:43.207Z,99621.19
2022-08-05T01:13:59.964Z,99623.23
2022-08-05T01:20:00.723Z,99616.02
2022-08-05T01:25:39.998Z,99619.77
2022-08-05T01:31:05.181Z,99613.06
2022-08-05T01:36:16.072Z,99612.39
2022-08-05T01:41:25.704Z,99612.06
2022-08-05T01:46:42.442Z,99609.13
2022-08-05T01:51:51.840Z,99606.98
2022-08-05T01:58:18.880Z,99605.02
2022-08-05T02:02:25.982Z,99605.66
2022-08-05T02:07:32.454Z,99603.42
2022-08-05T02:12:58.339Z,99600.39
2022-08-05T02:18:32.588Z,99599.12
2022-08-05T02:23:40.513Z,99592.61
2022-08-05T02:28:46.064Z,99589.48
2022-08-05T02:33:57.389Z,99582.30
2022-08-05T02:39:03.231Z,99585.15
2022-08-05T02:44:11.962Z,99580.48
2022-08-05T02:49:17.618Z,99573.41
2022-08-05T02:54:34.876Z,99575.05
2022-08-05T02:59:50.231Z,99572.86
2022-08-05T03:05:00.909Z,99571.16
2022-08-05T03:10:04.580Z,99566.42
2022-08-05T03:15:12.631Z,99563.80
2022-08-05T03:20:15.783Z,99560.31
2022-08-05T03:25:33.268Z,99557.60
2022-08-05T03:30:47.711Z,99561.38
2022-08-05T03:35:51.728Z,99559.23
2022-08-05T03:40:55.159Z,99559.04
2022-08-05T03:46:04.129Z,99556.85
2022-08-05T03:52:36.992Z,99554.86
2022-08-05T03:56:47.911Z,99548.90
2022-08-05T04:01:59.102Z,99550.23
2022-08-05T04:07:03.945Z,99547.61
2022-08-05T04:12:23.568Z,99547.80
2022-08-05T04:17:55.879Z,99548.16
2022-08-05T04:22:53.935Z,99553.97
2022-08-05T04:27:59.702Z,99549.02
2022-08-05T04:33:08.664Z,99548.61
2022-08-05T04:38:11.852Z,99551.85
2022-08-05T04:43:22.023Z,99553.63
2022-08-05T04:48:27.396Z,99551.19
2022-08-05T04:53:33.408Z,99544.31
2022-08-05T04:58:38.458Z,99538.52
2022-08-05T05:03:42.158Z,99540.78
2022-08-05T05:08:45.841Z,99537.45
2022-08-05T05:13:53.300Z,99535.98
2022-08-05T05:19:18.941Z,99540.83
2022-08-05T05:24:21.915Z,99544.58
2022-08-05T05:29:25.035Z,99545.22
2022-08-05T05:34:48.053Z,99548.70
2022-08-05T05:39:55.460Z,99556.15
2022-08-05T05:44:59.646Z,99558.60
2022-08-05T05:50:06.674Z,99558.52
2022-08-05T05:55:15.001Z,99555.16
2022-08-05T06:00:21.787Z,99555.68
2022-08-05T06:05:34.697Z,99553.23
2022-08-05T06:10:52.523Z,99554.39
2022-08-05T06:16:29.591Z,99549.79
2022-08-05T06:21:19.132Z,99555.95
2022-08-05T06:26:24.947Z,99560.29
2022-08-05T06:31:30.470Z,99560.55
2022-08-05T06:36:57.678Z,99557.80
2022-08-05T06:42:03.874Z,99560.48
2022-08-05T06:47:10.326Z,99558.98
2022-08-05T06:52:37.067Z,99556.64
2022-08-05T06:57:57.303Z,99554.96
2022-08-05T07:03:09.782Z,99547.87
2022-08-05T07:08:13.242Z,99543.16
2022-08-05T07:13:56.781Z,99535.41
2022-08-05T07:18:57.723Z,99535.95
2022-08-05T07:24:02.520Z,99535.30
2022-08-05T07:29:05.967Z,99537.14
2022-08-05T07:34:13.889Z,99530.27
2022-08-05T07:39:50.342Z,99533.44
2022-08-05T07:44:40.065Z,99532.19
2022-08-05T07:49:54.291Z,99531.23
2022-08-05T07:54:57.902Z,99535.21
2022-08-05T08:00:01.991Z,99526.89
2022-08-05T08:05:08.274Z,99530.61
2022-08-05T08:10:14.632Z,99534.70
2022-08-05T08:16:35.841Z,99533.36
2022-08-05T08:21:02.342Z,99529.67
2022-08-05T08:26:07.079Z,99525.47
2022-08-05T08:31:14.925Z,99519.14
2022-08-05T08:36:38.778Z,99522.45
2022-08-05T08:42:00.148Z,99519.15
2022-08-05T08:47:47.048Z,99517.80
2022-08-05T08:52:33.516Z,99511.88
2022-08-05T08:57:48.162Z,99518.16
2022-08-05T09:02:53.483Z,99518.27
2022-08-05T09:07:57.353Z,99518.35
2022-08-05T09:13:05.203Z,99508.25
2022-08-05T09:18:13.381Z,99501.56
2022-08-05T09:23:21.696Z,99495.08
2022-08-05T09:28:31.959Z,99497.00
2022-08-05T09:33:50.895Z,99489.94
2022-08-05T09:39:18.472Z,99483.82
2022-08-05T09:44:41.376Z,99485.61
2022-08-05T09:50:01.959Z,99475.27
2022-08-05T09:55:58.036Z,99482.64
2022-08-05T10:00:31.495Z,99479.91
2022-08-05T10:05:36.312Z,99479.52
2022-08-05T10:10:54.518Z,99477.15
2022-08-05T10:16:00.592Z,99468.39
2022-08-05T10:21:11.927Z,99454.06
2022-08-05T10:26:24.157Z,99460.77
2022-08-05T10:32:53.045Z,99456.63
2022-08-05T10:36:54.129Z,99451.91
2022-08-05T10:42:18.591Z,99444.02
2022-08-05T10:47:34.428Z,99441.17
2022-08-05T10:52:58.486Z,99434.17
2022-08-05T10:58:14.910Z,99418.65
2022-08-05T11:03:23.239Z,99419.33
2022-08-05T11:08:39.090Z,99423.33
2022-08-05T11:13:54.798Z,99413.61
2022-08-05T11:20:11.435Z,99407.46
2022-08-05T11:26:05.896Z,99407.55
2022-08-05T11:31:06.333Z,99407.89
2022-08-05T11:36:11.519Z,99411.75
2022-08-05T11:41:54.827Z,99394.27
2022-08-05T11:46:58.728Z,99394.13
2022-08-05T11:52:11.713Z,99391.67
2022-08-05T11:57:25.003Z,99390.98
2022-08-05T12:02:33.435Z,99392.73
2022-08-05T12:08:08.264Z,99396.30
2022-08-05T12:13:17.466Z,99390.30
2022-08-05T12:18:34.595Z,99392.20
2022-08-05T12:23:54.719Z,99379.90
2022-08-05T12:28:57.778Z,99371.23
2022-08-05T12:34:09.271Z,99370.30
2022-08-05T12:39:34.758Z,99364.31
2022-08-05T12:44:43.188Z,99353.70
2022-08-05T12:50:04.339Z,99347.16
2022-08-05T12:55:25.339Z,99347.48
2022-08-05T13:02:03.964Z,99347.58
2022-08-05T13:05:56.429Z,99340.86
2022-08-05T13:11:02.263Z,99331.68
2022-08-05T13:16:15.347Z,99330.50
2022-08-05T13:21:20.423Z,99326.46
2022-08-05T13:26:29.856Z,99325.42
2022-08-05T13:31:33.847Z,99323.77
2022-08-05T13:37:07.103Z,99329.88
2022-08-05T13:42:15.005Z,99322.98
2022-08-05T13:47:34.702Z,99320.48
2022-08-05T13:52:39.457Z,99319.94
2022-08-05T13:57:50.988Z,99307.85
2022-08-05T14:03:01.141Z,99304.14
2022-08-05T14:08:20.232Z,99300.18
2022-08-05T14:13:25.619Z,99295.09
2022-08-05T14:18:31.749Z,99293.65
2022-08-05T14:23:37.285Z,99287.89
2022-08-05T14:28:51.893Z,99288.15
2022-08-05T14:33:59.592Z,99290.58
2022-08-05T14:39:05.964Z,99281.23
2022-08-05T14:44:20.585Z,99290.23
2022-08-05T14:49:56.370Z,99284.65
2022-08-05T14:54:57.671Z,99283.16
2022-08-05T15:00:11.670Z,99283.75
2022-08-05T15:05:18.341Z,99282.35
2022-08-05T15:10:28.741Z,99276.59
2022-08-05T15:15:55.505Z,99273.69
2022-08-05T15:20:59.036Z,99274.82
2022-08-05T15:26:11.121Z,99264.38
2022-08-05T15:31:16.764Z,99263.55
2022-08-05T15:36:24.471Z,99262.07
2022-08-05T15:41:57.729Z,99260.54
2022-08-05T15:46:57.301Z,99257.56
2022-08-05T15:52:10.083Z,99259.11
2022-08-05T15:57:21.010Z,99254.11
2022-08-05T16:02:27.707Z,99259.35
2022-08-05T16:07:35.434Z,99262.64
2022-08-05T16:12:38.494Z,99259.86
2022-08-05T16:17:41.503Z,99263.13
2022-08-05T16:22:44.499Z,99260.11
2022-08-05T16:28:02.115Z,99255.72
2022-08-05T16:33:09.290Z,99253.73
2022-08-05T16:38:23.851Z,99255.45
2022-08-05T16:43:32.687Z,99254.24
2022-08-05T16:48:39.162Z,99256.55
2022-08-05T16:54:04.111Z,99249.54
2022-08-05T16:59:11.042Z,99243.67
2022-08-05T17:04:18.744Z,99237.20
2022-08-05T17:09:23.202Z,99239.65
2022-08-05T17:14:36.720Z,99239.70
2022-08-05T17:19:45.290Z,99240.66
2022-08-05T17:24:57.921Z,99246.96
2022-08-05T17:30:12.028Z,99245.54
2022-08-05T17:35:22.230Z,99252.83
2022-08-05T17:40:25.333Z,99254.55
2022-08-05T17:45:37.962Z,99256.58
2022-08-05T17:50:42.000Z,99256.98
2022-08-05T17:55:47.526Z,99256.09
2022-08-05T18:00:52.048Z,99255.04
2022-08-05T18:06:04.235Z,99259.12
2022-08-05T18:11:07.306Z,99256.42
2022-08-05T18:16:13.526Z,99261.38
2022-08-05T18:21:21.387Z,99268.24
2022-08-05T18:26:32.005Z,99268.24
2022-08-05T18:31:36.156Z,99261.43
2022-08-05T18:36:39.483Z,99253.22
2022-08-05T18:41:57.003Z,99263.69
2022-08-05T18:47:12.190Z,99263.74
2022-08-05T18:52:52.293Z,99267.86
2022-08-05T18:58:04.138Z,99268.55
2022-08-05T19:03:09.065Z,99269.98
2022-08-05T19:08:15.867Z,99280.83
2022-08-05T19:13:21.853Z,99284.47
2022-08-05T19:18:27.611Z,99294.56
2022-08-05T19:24:05.634Z,99298.48
2022-08-05T19:28:56.126Z,99292.79
2022-08-05T19:33:59.899Z,99289.88
2022-08-05T19:39:19.556Z,99295.73
2022-08-05T19:44:24.784Z,99296.45
2022-08-05T19:49:32.363Z,99290.84
2022-08-05T19:54:36.882Z,99291.29
2022-08-05T20:00:01.247Z,99293.93
2022-08-05T20:05:09.744Z,99294.31
2022-08-05T20:10:24.441Z,99288.29
2022-08-05T20:15:52.662Z,99284.73
2022-08-05T20:20:59.880Z,99279.05
2022-08-05T20:26:06.800Z,99283.49
2022-08-05T20:31:09.981Z,99289.63
2022-08-05T20:36:16.446Z,99292.27
2022-08-05T20:41:24.251Z,99291.17
2022-08-05T20:46:30.955Z,99285.67
2022-08-05T20:51:35.010Z,99288.73
2022-08-05T20:56:42.529Z,99296.02
2022-08-05T21:01:46.165Z,99293.87
2022-08-05T21:06:50.287Z,99296.15
2022-08-05T21:12:09.345Z,99294.77
2022-08-05T21:17:17.194Z,99290.94
2022-08-05T21:22:23.380Z,99290.92
2022-08-05T21:27:27.468Z,99287.81
2022-08-05T21:32:33.518Z,99290.82
2022-08-05T21:37:41.080Z,99295.83
2022-08-05T21:42:45.789Z,99293.66
2022-08-05T21:47:56.628Z,99287.23
2022-08-05T21:53:04.319Z,99286.63
2022-08-05T21:58:14.832Z,99291.54
2022-08-05T22:03:52.003Z,99292.23
2022-08-05T22:08:44.516Z,99297.35
2022-08-05T22:14:05.829Z,99293.83
2022-08-05T22:19:56.169Z,99287.86
2022-08-05T22:24:59.594Z,99287.94
2022-08-05T22:30:03.656Z,99284.14
2022-08-05T22:35:07.981Z,99284.73
2022-08-05T22:40:36.920Z,99281.73
2022-08-05T22:45:58.497Z,99272.48
2022-08-05T22:51:06.987Z,99277.76
2022-08-05T22:56:10.496Z,99286.89
2022-08-05T23:01:16.403Z,99284.35
2022-08-05T23:06:19.433Z,99283.57
2022-08-05T23:11:29.294Z,99284.66
2022-08-05T23:16:55.567Z,99285.59
2022-08-05T23:21:58.600Z,99281.14
2022-08-05T23:27:01.695Z,99279.91
2022-08-05T23:32:05.543Z,99276.42
2022-08-05T23:37:08.626Z,99267.52
2022-08-05T23:42:23.407Z,99276.13
2022-08-05T23:47:33.811Z,99269.01
2022-08-05T23:52:49.705Z,99272.25
2022-08-05T23:57:53.779Z,99270.45
